sensor_id;sensor_type;location;lat;lon;timestamp;pressure;altitude;pressure_sealevel;temperature;humidity
37848;BME280;23688;33.130;-117.188;2023-07-08T00:00:47;98929.69;;;21.35;63.16
37848;BME280;23688;33.130;-117.188;2023-07-08T00:03:17;98933.06;;;21.50;62.16
37848;BME280;23688;33.130;-117.188;2023-07-08T00:05:45;98932.09;;;21.58;60.59
37848;BME280;23688;33.130;-117.188;2023-07-08T00:08:17;98932.06;;;21.60;61.27
37848;BME280;23688;33.130;-117.188;2023-07-08T00:10:43;98923.72;;;21.92;61.81
37848;BME280;23688;33.130;-117.188;2023-07-08T00:13:10;98917.72;;;21.79;59.61
37848;BME280;23688;33.130;-117.188;2023-07-08T00:15:38;98923.69;;;21.94;60.43
37848;BME280;23688;33.130;-117.188;2023-07-08T00:18:16;98911.50;;;21.85;58.70
37848;BME280;23688;33.130;-117.188;2023-07-08T00:20:48;98911.72;;;21.68;61.78
37848;BME280;23688;33.130;-117.188;2023-07-08T00:23:15;98914.41;;;21.64;61.43
37848;BME280;23688;33.130;-117.188;2023-07-08T00:25:42;98914.84;;;21.98;59.82
37848;BME280;23688;33.130;-117.188;2023-07-08T00:28:10;98909.25;;;22.16;58.48
37848;BME280;23688;33.130;-117.188;2023-07-08T00:30:38;98915.38;;;22.23;58.62
37848;BME280;23688;33.130;-117.188;2023-07-08T00:33:05;98914.25;;;21.76;61.75
37848;BME280;23688;33.130;-117.188;2023-07-08T00:35:38;98912.50;;;21.75;62.66
37848;BME280;23688;33.130;-117.188;2023-07-08T00:40:51;98898.69;;;21.53;61.21
37848;BME280;23688;33.130;-117.188;2023-07-08T00:43:24;98903.25;;;21.37;62.58
37848;BME280;23688;33.130;-117.188;2023-07-08T00:46:08;98900.00;;;21.13;62.98
37848;BME280;23688;33.130;-117.188;2023-07-08T00:48:40;98903.41;;;21.25;64.80
37848;BME280;23688;33.130;-117.188;2023-07-08T00:51:09;98907.63;;;21.38;64.02
37848;BME280;23688;33.130;-117.188;2023-07-08T00:53:38;98905.84;;;21.45;64.58
37848;BME280;23688;33.130;-117.188;2023-07-08T00:56:25;98901.09;;;21.71;64.47
37848;BME280;23688;33.130;-117.188;2023-07-08T00:59:02;98914.53;;;21.53;63.93
37848;BME280;23688;33.130;-117.188;2023-07-08T01:01:32;98906.34;;;20.97;65.40
37848;BME280;23688;33.130;-117.188;2023-07-08T01:04:04;98907.47;;;20.73;67.90
37848;BME280;23688;33.130;-117.188;2023-07-08T01:06:34;98902.97;;;20.83;68.75
37848;BME280;23688;33.130;-117.188;2023-07-08T01:09:08;98906.88;;;20.33;69.09
37848;BME280;23688;33.130;-117.188;2023-07-08T01:11:37;98911.34;;;20.23;71.14
37848;BME280;23688;33.130;-117.188;2023-07-08T01:14:07;98898.16;;;20.24;71.24
37848;BME280;23688;33.130;-117.188;2023-07-08T01:16:35;98904.59;;;19.79;72.26
37848;BME280;23688;33.130;-117.188;2023-07-08T01:19:03;98913.41;;;19.64;74.23
37848;BME280;23688;33.130;-117.188;2023-07-08T01:24:20;98911.66;;;19.60;74.80
37848;BME280;23688;33.130;-117.188;2023-07-08T01:26:47;98906.47;;;19.43;75.79
37848;BME280;23688;33.130;-117.188;2023-07-08T01:29:13;98900.31;;;19.47;76.70
37848;BME280;23688;33.130;-117.188;2023-07-08T01:31:40;98900.38;;;19.29;77.14
37848;BME280;23688;33.130;-117.188;2023-07-08T01:34:09;98904.84;;;19.02;79.13
37848;BME280;23688;33.130;-117.188;2023-07-08T01:36:41;98907.44;;;19.07;80.38
37848;BME280;23688;33.130;-117.188;2023-07-08T01:39:14;98911.78;;;19.21;80.12
37848;BME280;23688;33.130;-117.188;2023-07-08T01:41:41;98914.47;;;19.11;80.05
37848;BME280;23688;33.130;-117.188;2023-07-08T01:44:29;98914.50;;;19.03;81.75
37848;BME280;23688;33.130;-117.188;2023-07-08T01:47:08;98917.06;;;19.21;80.56
37848;BME280;23688;33.130;-117.188;2023-07-08T01:49:38;98917.13;;;19.08;80.90
37848;BME280;23688;33.130;-117.188;2023-07-08T01:52:06;98919.72;;;19.20;80.53
37848;BME280;23688;33.130;-117.188;2023-07-08T01:54:34;98917.91;;;19.28;80.24
37848;BME280;23688;33.130;-117.188;2023-07-08T01:57:00;98931.16;;;19.02;81.38
37848;BME280;23688;33.130;-117.188;2023-07-08T01:59:28;98913.63;;;18.87;82.36
37848;BME280;23688;33.130;-117.188;2023-07-08T02:01:55;98912.75;;;18.91;82.01
37848;BME280;23688;33.130;-117.188;2023-07-08T02:04:25;98918.03;;;18.84;82.84
37848;BME280;23688;33.130;-117.188;2023-07-08T02:06:59;98921.50;;;18.69;84.93
37848;BME280;23688;33.130;-117.188;2023-07-08T02:09:26;98926.78;;;18.61;85.50
37848;BME280;23688;33.130;-117.188;2023-07-08T02:11:54;98920.66;;;18.59;85.83
37848;BME280;23688;33.130;-117.188;2023-07-08T02:14:22;98937.28;;;18.50;86.22
37848;BME280;23688;33.130;-117.188;2023-07-08T02:16:48;98936.41;;;18.68;86.05
37848;BME280;23688;33.130;-117.188;2023-07-08T02:19:15;98933.81;;;18.80;85.24
37848;BME280;23688;33.130;-117.188;2023-07-08T02:21:41;98932.06;;;18.78;84.87
37848;BME280;23688;33.130;-117.188;2023-07-08T02:24:08;98938.16;;;18.75;84.75
37848;BME280;23688;33.130;-117.188;2023-07-08T02:26:35;98939.06;;;18.68;85.06
37848;BME280;23688;33.130;-117.188;2023-07-08T02:29:01;98935.53;;;18.37;86.89
37848;BME280;23688;33.130;-117.188;2023-07-08T02:31:28;98935.53;;;18.34;87.49
37848;BME280;23688;33.130;-117.188;2023-07-08T02:33:54;98945.16;;;18.27;87.94
37848;BME280;23688;33.130;-117.188;2023-07-08T02:36:21;98946.06;;;18.42;86.82
37848;BME280;23688;33.130;-117.188;2023-07-08T02:38:47;98949.56;;;18.42;86.64
37848;BME280;23688;33.130;-117.188;2023-07-08T02:41:14;98941.66;;;18.33;87.03
37848;BME280;23688;33.130;-117.188;2023-07-08T02:43:40;98950.34;;;18.04;88.70
37848;BME280;23688;33.130;-117.188;2023-07-08T02:46:07;98954.69;;;17.85;89.80
37848;BME280;23688;33.130;-117.188;2023-07-08T02:48:33;98956.34;;;17.66;90.90
37848;BME280;23688;33.130;-117.188;2023-07-08T02:51:00;98953.84;;;17.92;89.90
37848;BME280;23688;33.130;-117.188;2023-07-08T02:53:26;98958.19;;;17.83;89.72
37848;BME280;23688;33.130;-117.188;2023-07-08T02:55:53;98963.31;;;17.63;91.46
37848;BME280;23688;33.130;-117.188;2023-07-08T02:58:19;98960.59;;;17.44;93.00
37848;BME280;23688;33.130;-117.188;2023-07-08T03:00:54;98967.56;;;17.38;94.07
37848;BME280;23688;33.130;-117.188;2023-07-08T03:03:21;98976.22;;;17.23;95.50
37848;BME280;23688;33.130;-117.188;2023-07-08T03:05:59;98971.03;;;17.33;95.07
37848;BME280;23688;33.130;-117.188;2023-07-08T03:08:27;98971.06;;;17.37;94.89
37848;BME280;23688;33.130;-117.188;2023-07-08T03:10:58;98983.19;;;17.21;96.09
37848;BME280;23688;33.130;-117.188;2023-07-08T03:13:25;98983.22;;;17.19;96.55
37848;BME280;23688;33.130;-117.188;2023-07-08T03:15:51;98980.56;;;17.21;96.67
37848;BME280;23688;33.130;-117.188;2023-07-08T03:18:18;98984.91;;;17.13;96.84
37848;BME280;23688;33.130;-117.188;2023-07-08T03:20:48;98985.72;;;17.04;97.25
37848;BME280;23688;33.130;-117.188;2023-07-08T03:23:14;98981.44;;;17.15;96.34
37848;BME280;23688;33.130;-117.188;2023-07-08T03:25:41;98986.78;;;17.33;94.60
37848;BME280;23688;33.130;-117.188;2023-07-08T03:28:08;98991.13;;;17.27;95.12
37848;BME280;23688;33.130;-117.188;2023-07-08T03:30:40;98994.53;;;17.15;96.40
37848;BME280;23688;33.130;-117.188;2023-07-08T03:33:08;98986.41;;;16.81;98.90
37848;BME280;23688;33.130;-117.188;2023-07-08T03:35:34;98995.25;;;16.94;98.80
37848;BME280;23688;33.130;-117.188;2023-07-08T03:38:03;98995.41;;;17.13;97.32
37848;BME280;23688;33.130;-117.188;2023-07-08T03:40:29;98989.34;;;17.26;96.69
37848;BME280;23688;33.130;-117.188;2023-07-08T03:42:55;98996.09;;;16.88;98.91
37848;BME280;23688;33.130;-117.188;2023-07-08T03:45:22;98997.81;;;16.86;99.06
37848;BME280;23688;33.130;-117.188;2023-07-08T03:47:48;99000.47;;;16.89;98.83
37848;BME280;23688;33.130;-117.188;2023-07-08T03:50:20;99007.41;;;16.84;99.15
37848;BME280;23688;33.130;-117.188;2023-07-08T03:52:47;99015.34;;;16.92;98.81
37848;BME280;23688;33.130;-117.188;2023-07-08T03:55:14;99007.50;;;16.95;98.86
37848;BME280;23688;33.130;-117.188;2023-07-08T03:57:41;99009.00;;;16.68;100.00
37848;BME280;23688;33.130;-117.188;2023-07-08T04:00:08;99014.16;;;16.59;100.00
37848;BME280;23688;33.130;-117.188;2023-07-08T04:02:42;99006.91;;;16.32;100.00
37848;BME280;23688;33.130;-117.188;2023-07-08T04:05:17;99007.75;;;16.30;100.00
37848;BME280;23688;33.130;-117.188;2023-07-08T04:07:45;99012.13;;;16.34;100.00
37848;BME280;23688;33.130;-117.188;2023-07-08T04:10:12;99012.38;;;16.55;100.00
37848;BME280;23688;33.130;-117.188;2023-07-08T04:12:39;99018.53;;;16.62;100.00
37848;BME280;23688;33.130;-117.188;2023-07-08T04:15:08;99028.94;;;16.51;100.00
37848;BME280;23688;33.130;-117.188;2023-07-08T04:17:39;99031.34;;;16.33;100.00
37848;BME280;23688;33.130;-117.188;2023-07-08T04:20:11;99034.78;;;16.25;100.00
37848;BME280;23688;33.130;-117.188;2023-07-08T04:22:40;99029.69;;;16.39;100.00
37848;BME280;23688;33.130;-117.188;2023-07-08T04:25:12;99008.50;;;16.18;100.00
37848;BME280;23688;33.130;-117.188;2023-07-08T04:27:39;99031.47;;;16.45;100.00
37848;BME280;23688;33.130;-117.188;2023-07-08T04:30:07;99047.03;;;16.31;100.00
37848;BME280;23688;33.130;-117.188;2023-07-08T04:32:35;99045.34;;;16.32;100.00
37848;BME280;23688;33.130;-117.188;2023-07-08T04:35:03;99046.19;;;16.34;100.00
37848;BME280;23688;33.130;-117.188;2023-07-08T04:37:30;99044.34;;;16.23;100.00
37848;BME280;23688;33.130;-117.188;2023-07-08T04:39:56;99037.22;;;16.12;100.00
37848;BME280;23688;33.130;-117.188;2023-07-08T04:42:25;99041.81;;;16.30;100.00
37848;BME280;23688;33.130;-117.188;2023-07-08T04:44:54;99041.72;;;16.23;100.00
37848;BME280;23688;33.130;-117.188;2023-07-08T04:47:22;99050.44;;;16.19;100.00
37848;BME280;23688;33.130;-117.188;2023-07-08T04:49:48;99047.00;;;16.25;100.00
37848;BME280;23688;33.130;-117.188;2023-07-08T04:52:14;99050.69;;;16.44;100.00
37848;BME280;23688;33.130;-117.188;2023-07-08T04:54:41;99045.53;;;16.53;100.00
37848;BME280;23688;33.130;-117.188;2023-07-08T04:57:08;99046.38;;;16.49;100.00
37848;BME280;23688;33.130;-117.188;2023-07-08T04:59:34;99048.00;;;16.38;100.00
37848;BME280;23688;33.130;-117.188;2023-07-08T05:02:00;99053.31;;;16.45;100.00
37848;BME280;23688;33.130;-117.188;2023-07-08T05:04:27;99052.19;;;16.20;100.00
37848;BME280;23688;33.130;-117.188;2023-07-08T05:06:53;99055.94;;;16.44;100.00
37848;BME280;23688;33.130;-117.188;2023-07-08T05:09:19;99060.44;;;16.57;100.00
37848;BME280;23688;33.130;-117.188;2023-07-08T05:11:49;99053.41;;;16.52;100.00
37848;BME280;23688;33.130;-117.188;2023-07-08T05:14:15;99061.41;;;16.65;100.00
37848;BME280;23688;33.130;-117.188;2023-07-08T05:16:44;99040.38;;;16.62;100.00
37848;BME280;23688;33.130;-117.188;2023-07-08T05:19:10;99061.47;;;16.73;100.00
37848;BME280;23688;33.130;-117.188;2023-07-08T05:21:37;99064.19;;;16.79;100.00
37848;BME280;23688;33.130;-117.188;2023-07-08T05:24:05;99062.22;;;16.61;100.00
37848;BME280;23688;33.130;-117.188;2023-07-08T05:26:32;99057.84;;;16.60;100.00
37848;BME280;23688;33.130;-117.188;2023-07-08T05:28:59;99067.56;;;16.71;100.00
37848;BME280;23688;33.130;-117.188;2023-07-08T05:31:25;99068.50;;;16.76;99.04
37848;BME280;23688;33.130;-117.188;2023-07-08T05:33:52;99069.34;;;16.75;98.12
37848;BME280;23688;33.130;-117.188;2023-07-08T05:36:19;99073.69;;;16.71;97.50
37848;BME280;23688;33.130;-117.188;2023-07-08T05:38:45;99085.91;;;16.71;97.03
37848;BME280;23688;33.130;-117.188;2023-07-08T05:41:12;99078.91;;;16.68;97.23
37848;BME280;23688;33.130;-117.188;2023-07-08T05:43:38;99056.91;;;16.54;96.89
37848;BME280;23688;33.130;-117.188;2023-07-08T05:46:04;99071.84;;;16.62;97.37
37848;BME280;23688;33.130;-117.188;2023-07-08T05:48:30;99075.34;;;16.64;97.55
37848;BME280;23688;33.130;-117.188;2023-07-08T05:50:57;99056.94;;;16.57;97.57
37848;BME280;23688;33.130;-117.188;2023-07-08T05:53:23;99068.31;;;16.60;98.11
37848;BME280;23688;33.130;-117.188;2023-07-08T05:55:50;99069.16;;;16.55;99.32
37848;BME280;23688;33.130;-117.188;2023-07-08T05:58:16;99080.53;;;16.60;100.00
37848;BME280;23688;33.130;-117.188;2023-07-08T06:00:43;99081.41;;;16.60;100.00
37848;BME280;23688;33.130;-117.188;2023-07-08T06:03:10;99070.84;;;16.50;100.00
37848;BME280;23688;33.130;-117.188;2023-07-08T06:05:37;99076.94;;;16.50;100.00
37848;BME280;23688;33.130;-117.188;2023-07-08T06:08:06;99065.38;;;16.30;100.00
37848;BME280;23688;33.130;-117.188;2023-07-08T06:10:33;99067.22;;;16.37;100.00
37848;BME280;23688;33.130;-117.188;2023-07-08T06:13:02;99069.91;;;16.44;100.00
37848;BME280;23688;33.130;-117.188;2023-07-08T06:15:28;99074.34;;;16.52;100.00
37848;BME280;23688;33.130;-117.188;2023-07-08T06:17:54;99075.25;;;16.55;100.00
37848;BME280;23688;33.130;-117.188;2023-07-08T06:20:20;99074.41;;;16.58;100.00
37848;BME280;23688;33.130;-117.188;2023-07-08T06:22:47;99063.88;;;16.52;100.00
37848;BME280;23688;33.130;-117.188;2023-07-08T06:25:13;99076.09;;;16.51;100.00
37848;BME280;23688;33.130;-117.188;2023-07-08T06:27:40;99070.75;;;16.43;100.00
37848;BME280;23688;33.130;-117.188;2023-07-08T06:30:07;99068.13;;;16.39;98.87
37848;BME280;23688;33.130;-117.188;2023-07-08T06:32:33;99075.06;;;16.37;98.96
37848;BME280;23688;33.130;-117.188;2023-07-08T06:35:01;99069.72;;;16.27;99.24
37848;BME280;23688;33.130;-117.188;2023-07-08T06:37:27;99080.13;;;16.21;99.75
37848;BME280;23688;33.130;-117.188;2023-07-08T06:39:54;99076.59;;;16.18;99.46
37848;BME280;23688;33.130;-117.188;2023-07-08T06:42:23;99078.28;;;16.13;99.24
37848;BME280;23688;33.130;-117.188;2023-07-08T06:44:49;99072.97;;;16.08;99.95
37848;BME280;23688;33.130;-117.188;2023-07-08T06:47:20;99084.38;;;16.10;100.00
37848;BME280;23688;33.130;-117.188;2023-07-08T06:49:47;99079.09;;;16.09;100.00
37848;BME280;23688;33.130;-117.188;2023-07-08T06:52:14;99080.06;;;16.15;100.00
37848;BME280;23688;33.130;-117.188;2023-07-08T06:54:41;99087.03;;;16.16;100.00
37848;BME280;23688;33.130;-117.188;2023-07-08T06:57:08;99081.63;;;16.01;100.00
37848;BME280;23688;33.130;-117.188;2023-07-08T06:59:35;99078.22;;;16.08;100.00
37848;BME280;23688;33.130;-117.188;2023-07-08T07:02:02;99075.63;;;16.10;100.00
37848;BME280;23688;33.130;-117.188;2023-07-08T07:04:28;99074.72;;;16.08;100.00
37848;BME280;23688;33.130;-117.188;2023-07-08T07:06:58;99086.09;;;16.10;100.00
37848;BME280;23688;33.130;-117.188;2023-07-08T07:09:25;99065.91;;;16.01;100.00
37848;BME280;23688;33.130;-117.188;2023-07-08T07:11:52;99074.72;;;16.09;100.00
37848;BME280;23688;33.130;-117.188;2023-07-08T07:14:19;99069.44;;;16.03;100.00
37848;BME280;23688;33.130;-117.188;2023-07-08T07:16:46;99074.66;;;16.03;100.00
37848;BME280;23688;33.130;-117.188;2023-07-08T07:19:12;99079.06;;;16.05;100.00
37848;BME280;23688;33.130;-117.188;2023-07-08T07:21:39;99075.53;;;16.03;100.00
37848;BME280;23688;33.130;-117.188;2023-07-08T07:24:05;99077.19;;;15.97;100.00
37848;BME280;23688;33.130;-117.188;2023-07-08T07:26:32;99078.97;;;15.99;100.00
37848;BME280;23688;33.130;-117.188;2023-07-08T07:28:59;99074.56;;;15.97;100.00
37848;BME280;23688;33.130;-117.188;2023-07-08T07:31:25;99080.72;;;15.99;100.00
37848;BME280;23688;33.130;-117.188;2023-07-08T07:34:24;99076.31;;;15.96;100.00
37848;BME280;23688;33.130;-117.188;2023-07-08T07:36:50;99071.91;;;15.91;100.00
37848;BME280;23688;33.130;-117.188;2023-07-08T07:42:22;99077.09;;;15.89;100.00
37848;BME280;23688;33.130;-117.188;2023-07-08T07:44:48;99064.88;;;15.88;100.00
37848;BME280;23688;33.130;-117.188;2023-07-08T07:47:14;99068.38;;;15.89;100.00
37848;BME280;23688;33.130;-117.188;2023-07-08T07:49:42;99068.41;;;15.90;100.00
37848;BME280;23688;33.130;-117.188;2023-07-08T07:52:09;99065.66;;;15.82;100.00
37848;BME280;23688;33.130;-117.188;2023-07-08T07:54:39;99075.25;;;15.82;100.00
37848;BME280;23688;33.130;-117.188;2023-07-08T07:57:06;99065.63;;;15.79;100.00
37848;BME280;23688;33.130;-117.188;2023-07-08T07:59:32;99055.94;;;15.72;100.00
37848;BME280;23688;33.130;-117.188;2023-07-08T08:01:58;99062.06;;;15.74;100.00
37848;BME280;23688;33.130;-117.188;2023-07-08T08:04:25;99059.38;;;15.70;100.00
37848;BME280;23688;33.130;-117.188;2023-07-08T08:06:51;99060.25;;;15.70;100.00
37848;BME280;23688;33.130;-117.188;2023-07-08T08:09:17;99043.53;;;15.59;100.00
37848;BME280;23688;33.130;-117.188;2023-07-08T08:11:44;99056.69;;;15.67;100.00
37848;BME280;23688;33.130;-117.188;2023-07-08T08:14:11;99056.66;;;15.65;100.00
37848;BME280;23688;33.130;-117.188;2023-07-08T08:16:37;99043.56;;;15.62;100.00
37848;BME280;23688;33.130;-117.188;2023-07-08T08:19:03;99041.84;;;15.64;100.00
37848;BME280;23688;33.130;-117.188;2023-07-08T08:21:30;99045.41;;;15.69;100.00
37848;BME280;23688;33.130;-117.188;2023-07-08T08:23:56;99038.31;;;15.62;100.00
37848;BME280;23688;33.130;-117.188;2023-07-08T08:26:24;99043.59;;;15.65;100.00
37848;BME280;23688;33.130;-117.188;2023-07-08T08:28:50;99033.91;;;15.59;100.00
37848;BME280;23688;33.130;-117.188;2023-07-08T08:31:17;99042.72;;;15.63;100.00
37848;BME280;23688;33.130;-117.188;2023-07-08T08:33:43;99041.88;;;15.66;100.00
37848;BME280;23688;33.130;-117.188;2023-07-08T08:36:10;99030.38;;;15.54;100.00
37848;BME280;23688;33.130;-117.188;2023-07-08T08:38:36;99040.06;;;15.61;100.00
37848;BME280;23688;33.130;-117.188;2023-07-08T08:41:17;99038.31;;;15.62;100.00
37848;BME280;23688;33.130;-117.188;2023-07-08T08:43:45;99039.31;;;15.70;100.00
37848;BME280;23688;33.130;-117.188;2023-07-08T08:51:26;99036.88;;;15.81;100.00
37848;BME280;23688;33.130;-117.188;2023-07-08T08:53:57;99031.66;;;15.84;100.00
37848;BME280;23688;33.130;-117.188;2023-07-08T08:59:56;99034.34;;;15.89;100.00
37848;BME280;23688;33.130;-117.188;2023-07-08T09:03:03;99042.25;;;15.93;100.00
37848;BME280;23688;33.130;-117.188;2023-07-08T09:05:27;99043.06;;;15.88;100.00
37848;BME280;23688;33.130;-117.188;2023-07-08T09:08:20;99034.25;;;15.82;100.00
37848;BME280;23688;33.130;-117.188;2023-07-08T09:11:40;99030.78;;;15.83;100.00
37848;BME280;23688;33.130;-117.188;2023-07-08T09:13:43;99020.22;;;15.77;100.00
37848;BME280;23688;33.130;-117.188;2023-07-08T09:16:41;99041.09;;;15.71;100.00
37848;BME280;23688;33.130;-117.188;2023-07-08T09:19:15;99054.97;;;15.67;100.00
37848;BME280;23688;33.130;-117.188;2023-07-08T09:21:59;99060.13;;;15.62;100.00
37848;BME280;23688;33.130;-117.188;2023-07-08T09:24:48;99051.16;;;15.44;100.00
37848;BME280;23688;33.130;-117.188;2023-07-08T09:27:15;99048.63;;;15.50;100.00
37848;BME280;23688;33.130;-117.188;2023-07-08T09:29:42;99048.72;;;15.57;100.00
37848;BME280;23688;33.130;-117.188;2023-07-08T09:32:27;99051.59;;;15.74;100.00
37848;BME280;23688;33.130;-117.188;2023-07-08T09:35:03;99046.47;;;15.80;100.00
37848;BME280;23688;33.130;-117.188;2023-07-08T09:37:36;99021.13;;;15.79;100.00
37848;BME280;23688;33.130;-117.188;2023-07-08T09:40:28;99049.38;;;16.05;100.00
37848;BME280;23688;33.130;-117.188;2023-07-08T09:45:46;99029.41;;;16.13;100.00
37848;BME280;23688;33.130;-117.188;2023-07-08T09:48:36;99037.38;;;16.25;100.00
37848;BME280;23688;33.130;-117.188;2023-07-08T09:51:03;99040.94;;;16.31;100.00
37848;BME280;23688;33.130;-117.188;2023-07-08T09:53:29;99027.81;;;16.27;100.00
37848;BME280;23688;33.130;-117.188;2023-07-08T09:56:03;99040.13;;;16.35;100.00
37848;BME280;23688;33.130;-117.188;2023-07-08T09:58:36;99030.47;;;16.34;100.00
37848;BME280;23688;33.130;-117.188;2023-07-08T10:01:25;99041.00;;;16.38;100.00
37848;BME280;23688;33.130;-117.188;2023-07-08T10:03:58;99039.28;;;16.40;100.00
37848;BME280;23688;33.130;-117.188;2023-07-08T10:06:27;99030.63;;;16.44;100.00
37848;BME280;23688;33.130;-117.188;2023-07-08T10:08:55;99037.63;;;16.47;100.00
37848;BME280;23688;33.130;-117.188;2023-07-08T10:11:29;99042.00;;;16.46;100.00
37848;BME280;23688;33.130;-117.188;2023-07-08T10:14:23;99044.56;;;16.43;100.00
37848;BME280;23688;33.130;-117.188;2023-07-08T10:16:54;99041.06;;;16.41;100.00
37848;BME280;23688;33.130;-117.188;2023-07-08T10:19:21;99041.06;;;16.41;100.00
37848;BME280;23688;33.130;-117.188;2023-07-08T10:30:27;99041.00;;;16.38;100.00
37848;BME280;23688;33.130;-117.188;2023-07-08T10:35:36;99039.28;;;16.40;100.00
37848;BME280;23688;33.130;-117.188;2023-07-08T10:41:46;99028.81;;;16.39;100.00
37848;BME280;23688;33.130;-117.188;2023-07-08T10:44:13;99034.16;;;16.50;100.00
37848;BME280;23688;33.130;-117.188;2023-07-08T10:50:28;99037.63;;;16.47;100.00
37848;BME280;23688;33.130;-117.188;2023-07-08T10:52:40;99033.22;;;16.41;100.00
37848;BME280;23688;33.130;-117.188;2023-07-08T11:03:37;99027.97;;;16.43;100.00
37848;BME280;23688;33.130;-117.188;2023-07-08T11:07:12;99022.72;;;16.41;100.00
37848;BME280;23688;33.130;-117.188;2023-07-08T11:09:26;99026.94;;;16.29;100.00
37848;BME280;23688;33.130;-117.188;2023-07-08T11:12:03;99030.50;;;16.35;100.00
37848;BME280;23688;33.130;-117.188;2023-07-08T11:14:47;99027.13;;;16.45;100.00
37848;BME280;23688;33.130;-117.188;2023-07-08T11:17:32;99021.03;;;16.46;100.00
37848;BME280;23688;33.130;-117.188;2023-07-08T11:20:16;99022.66;;;16.38;100.00
37848;BME280;23688;33.130;-117.188;2023-07-08T11:23:11;99040.22;;;16.44;100.00
37848;BME280;23688;33.130;-117.188;2023-07-08T11:25:44;99027.03;;;16.36;100.00
37848;BME280;23688;33.130;-117.188;2023-07-08T11:28:16;99031.31;;;16.26;100.00
37848;BME280;23688;33.130;-117.188;2023-07-08T11:30:46;99035.66;;;16.24;100.00
37848;BME280;23688;33.130;-117.188;2023-07-08T11:33:22;99036.34;;;16.11;100.00
37848;BME280;23688;33.130;-117.188;2023-07-08T11:35:52;99041.56;;;16.08;100.00
37848;BME280;23688;33.130;-117.188;2023-07-08T11:38:21;99042.44;;;16.09;100.00
37848;BME280;23688;33.130;-117.188;2023-07-08T11:40:53;99045.06;;;16.07;100.00
37848;BME280;23688;33.130;-117.188;2023-07-08T11:43:22;99036.34;;;16.10;100.00
37848;BME280;23688;33.130;-117.188;2023-07-08T11:45:49;99046.97;;;16.23;100.00
37848;BME280;23688;33.130;-117.188;2023-07-08T11:48:38;99039.09;;;16.23;100.00
37848;BME280;23688;33.130;-117.188;2023-07-08T11:51:06;99040.03;;;16.29;100.00
37848;BME280;23688;33.130;-117.188;2023-07-08T11:53:36;99045.31;;;16.33;100.00
37848;BME280;23688;33.130;-117.188;2023-07-08T11:56:23;99042.78;;;16.39;100.00
37848;BME280;23688;33.130;-117.188;2023-07-08T12:01:48;99045.47;;;16.44;100.00
37848;BME280;23688;33.130;-117.188;2023-07-08T12:04:25;99018.34;;;16.39;100.00
37848;BME280;23688;33.130;-117.188;2023-07-08T12:07:17;99040.28;;;16.53;100.00
37848;BME280;23688;33.130;-117.188;2023-07-08T12:10:05;99042.94;;;16.55;100.00
37848;BME280;23688;33.130;-117.188;2023-07-08T12:12:38;99045.47;;;16.47;100.00
37848;BME280;23688;33.130;-117.188;2023-07-08T12:15:18;99056.00;;;16.50;100.00
37848;BME280;23688;33.130;-117.188;2023-07-08T12:17:48;99040.16;;;16.39;100.00
37848;BME280;23688;33.130;-117.188;2023-07-08T12:20:30;99058.59;;;16.50;100.00
37848;BME280;23688;33.130;-117.188;2023-07-08T12:22:57;99044.56;;;16.43;100.00
37848;BME280;23688;33.130;-117.188;2023-07-08T12:25:30;99056.84;;;16.46;100.00
37848;BME280;23688;33.130;-117.188;2023-07-08T12:27:57;99048.00;;;16.38;100.00
37848;BME280;23688;33.130;-117.188;2023-07-08T12:30:28;99056.78;;;16.43;100.00
37848;BME280;23688;33.130;-117.188;2023-07-08T12:32:55;99051.50;;;16.38;100.00
37848;BME280;23688;33.130;-117.188;2023-07-08T12:35:27;99058.56;;;16.44;100.00
37848;BME280;23688;33.130;-117.188;2023-07-08T12:38:00;99062.03;;;16.41;100.00
37848;BME280;23688;33.130;-117.188;2023-07-08T12:40:28;99062.91;;;16.42;100.00
37848;BME280;23688;33.130;-117.188;2023-07-08T12:42:57;99056.78;;;16.41;100.00
37848;BME280;23688;33.130;-117.188;2023-07-08T12:45:26;99058.50;;;16.41;100.00
37848;BME280;23688;33.130;-117.188;2023-07-08T12:47:53;99047.94;;;16.33;100.00
37848;BME280;23688;33.130;-117.188;2023-07-08T12:50:19;99045.38;;;16.38;100.00
37848;BME280;23688;33.130;-117.188;2023-07-08T12:52:46;99061.25;;;16.52;100.00
37848;BME280;23688;33.130;-117.188;2023-07-08T12:55:14;99073.44;;;16.46;100.00
37848;BME280;23688;33.130;-117.188;2023-07-08T12:57:44;99071.69;;;16.47;100.00
37848;BME280;23688;33.130;-117.188;2023-07-08T13:00:28;99074.34;;;16.48;100.00
37848;BME280;23688;33.130;-117.188;2023-07-08T13:05:30;99054.91;;;16.30;100.00
37848;BME280;23688;33.130;-117.188;2023-07-08T13:07:57;99067.97;;;16.26;100.00
37848;BME280;23688;33.130;-117.188;2023-07-08T13:10:35;99067.03;;;16.21;100.00
37848;BME280;23688;33.130;-117.188;2023-07-08T13:13:05;99060.91;;;16.19;100.00
37848;BME280;23688;33.130;-117.188;2023-07-08T13:15:40;99060.78;;;16.10;100.00
37848;BME280;23688;33.130;-117.188;2023-07-08T13:18:18;99053.72;;;16.03;100.00
37848;BME280;23688;33.130;-117.188;2023-07-08T13:20:51;99067.78;;;16.11;100.00
37848;BME280;23688;33.130;-117.188;2023-07-08T13:23:18;99073.00;;;16.10;100.00
37848;BME280;23688;33.130;-117.188;2023-07-08T13:25:48;99067.72;;;16.07;100.00
37848;BME280;23688;33.130;-117.188;2023-07-08T13:28:23;99060.66;;;15.98;100.00
37848;BME280;23688;33.130;-117.188;2023-07-08T13:31:00;99073.84;;;16.07;100.00